Time;durP1;ratioP1;P1;durP2;ratioP2;P2;SDS_P1;SDS_P2;PMS_P1;PMS_P2;Temp;Humidity;BMP_temperature;BMP_pressure;BME280_temperature;BME280_humidity;BME280_pressure;Samples;Min_cycle;Max_cycle;Signal;HPM_P1;HPM_P2
2024/02/12 00:02:18;;;;;;;;;;;282.30;2278.40;;;;;;5030821;28;19909;-76
2024/02/12 00:04:47;;;;;;;;;;;282.40;2278.40;;;;;;5021745;28;20255;-77
2024/02/12 00:07:17;;;;;;;;;;;282.30;2278.40;;;;;;5011388;28;20260;-81
2024/02/12 00:09:44;;;;;;;;;;;282.20;2278.40;;;;;;5013288;28;20272;-74
2024/02/12 00:12:11;;;;;;;;;;;282.10;2278.40;;;;;;5021888;28;19913;-81
2024/02/12 00:14:40;;;;;;;;;;;282.10;2278.40;;;;;;5015059;28;19906;-76
2024/02/12 00:17:09;;;;;;;;;;;282.20;2278.40;;;;;;5022585;28;19948;-75
2024/02/12 00:19:35;;;;;;;;;;;282.10;2278.40;;;;;;5027215;28;19917;-78
2024/02/12 00:22:01;;;;;;;;;;;282.50;2278.40;;;;;;5017712;28;20401;-76
2024/02/12 00:24:29;;;;;;;;;;;282.10;2278.40;;;;;;5002478;28;19909;-76
2024/02/12 00:26:59;;;;;;;;;;;282.10;2278.40;;;;;;5010487;28;19905;-75
2024/02/12 00:29:26;;;;;;;;;;;282.10;2278.40;;;;;;5024089;28;19908;-77
2024/02/12 00:31:52;;;;;;;;;;;282.10;2278.40;;;;;;5027958;28;19939;-76
2024/02/12 00:34:20;;;;;;;;;;;282.00;2278.40;;;;;;5020649;28;20432;-77
2024/02/12 00:36:46;;;;;;;;;;;282.00;2278.40;;;;;;5034659;28;19913;-82
2024/02/12 00:39:14;;;;;;;;;;;282.00;2278.40;;;;;;5006826;28;19971;-76
2024/02/12 00:41:40;;;;;;;;;;;282.10;2278.40;;;;;;5007745;28;19941;-81
2024/02/12 00:44:06;;;;;;;;;;;282.10;2278.40;;;;;;5023948;28;20325;-77
2024/02/12 00:46:32;;;;;;;;;;;282.20;2278.40;;;;;;5010717;28;20007;-77
2024/02/12 00:48:57;;;;;;;;;;;282.30;2278.40;;;;;;5005530;28;19916;-77
2024/02/12 00:51:23;;;;;;;;;;;282.30;2278.40;;;;;;5004848;28;19959;-77
2024/02/12 00:53:49;;;;;;;;;;;282.20;2278.40;;;;;;5002280;28;19936;-77
2024/02/12 00:56:18;;;;;;;;;;;282.20;2278.40;;;;;;5021881;28;19909;-76
2024/02/12 00:58:45;;;;;;;;;;;282.20;2278.40;;;;;;5032022;28;19939;-82
2024/02/12 01:01:11;;;;;;;;;;;282.30;2278.40;;;;;;5007074;28;19924;-76
2024/02/12 01:03:37;;;;;;;;;;;282.40;2278.40;;;;;;5000420;28;19909;-77
2024/02/12 01:06:03;;;;;;;;;;;282.50;2278.40;;;;;;5009145;28;19905;-77
2024/02/12 01:08:29;;;;;;;;;;;282.50;2278.40;;;;;;5017196;28;20251;-76
2024/02/12 01:10:54;;;;;;;;;;;307.30;2304.00;;;;;;5012120;28;19953;-76
2024/02/12 01:13:21;;;;;;;;;;;307.30;2304.00;;;;;;5025544;28;19943;-76
2024/02/12 01:15:49;;;;;;;;;;;307.30;2304.00;;;;;;5025427;28;19920;-77
2024/02/12 01:18:17;;;;;;;;;;;307.30;2304.00;;;;;;5015154;28;19984;-76
2024/02/12 01:20:44;;;;;;;;;;;307.30;2304.00;;;;;;5034154;28;19921;-78
2024/02/12 01:23:12;;;;;;;;;;;307.30;2304.00;;;;;;5023223;28;19917;-76
2024/02/12 01:25:38;;;;;;;;;;;307.40;2304.00;;;;;;5023103;28;19909;-76
2024/02/12 01:28:05;;;;;;;;;;;307.70;2304.00;;;;;;5007753;28;19905;-80
2024/02/12 01:30:31;;;;;;;;;;;307.70;2304.00;;;;;;5002870;28;19932;-76
2024/02/12 01:32:56;;;;;;;;;;;307.70;2304.00;;;;;;5015545;28;20358;-77
2024/02/12 01:35:22;;;;;;;;;;;307.60;2304.00;;;;;;5022143;28;19909;-78
2024/02/12 01:37:49;;;;;;;;;;;307.40;2304.00;;;;;;5002571;28;19910;-79
2024/02/12 01:40:14;;;;;;;;;;;307.60;2304.00;;;;;;5010011;28;19951;-77
2024/02/12 01:42:40;;;;;;;;;;;307.40;2304.00;;;;;;5008385;28;19999;-76
2024/02/12 01:45:11;;;;;;;;;;;307.40;2304.00;;;;;;4998315;28;19905;-76
2024/02/12 01:47:42;;;;;;;;;;;307.40;2304.00;;;;;;5002804;28;20012;-77
2024/02/12 01:50:10;;;;;;;;;;;307.60;2304.00;;;;;;5009067;28;19956;-81
2024/02/12 01:52:36;;;;;;;;;;;307.70;2304.00;;;;;;5002905;28;19959;-77
2024/02/12 01:55:03;;;;;;;;;;;307.70;2304.00;;;;;;5003712;28;19909;-77
2024/02/12 01:57:29;;;;;;;;;;;307.90;2304.00;;;;;;5005060;28;19916;-76
2024/02/12 01:59:57;;;;;;;;;;;307.70;2304.00;;;;;;5027071;28;19917;-76
2024/02/12 02:02:23;;;;;;;;;;;307.80;2304.00;;;;;;5009473;28;19909;-76
2024/02/12 02:04:50;;;;;;;;;;;308.00;2304.00;;;;;;5025973;28;19967;-77
2024/02/12 02:07:24;;;;;;;;;;;308.10;2304.00;;;;;;5011537;28;19936;-77
2024/02/12 02:09:53;;;;;;;;;;;308.00;2304.00;;;;;;5013510;28;19952;-76
2024/02/12 02:12:19;;;;;;;;;;;307.90;2304.00;;;;;;5031696;28;19909;-77
2024/02/12 02:14:45;;;;;;;;;;;307.70;2304.00;;;;;;5010347;28;20426;-75
2024/02/12 02:17:12;;;;;;;;;;;307.70;2304.00;;;;;;5017774;28;19905;-76
2024/02/12 02:19:38;;;;;;;;;;;307.90;2304.00;;;;;;5016188;28;19968;-74
2024/02/12 02:22:04;;;;;;;;;;;307.70;2304.00;;;;;;5030940;28;20371;-79
2024/02/12 02:24:30;;;;;;;;;;;307.40;2304.00;;;;;;5006433;28;19959;-76
2024/02/12 02:26:55;;;;;;;;;;;307.40;2304.00;;;;;;5006773;28;19913;-76
2024/02/12 02:29:21;;;;;;;;;;;307.60;2304.00;;;;;;5035230;28;19951;-76
2024/02/12 02:31:47;;;;;;;;;;;307.70;2304.00;;;;;;5014910;28;20306;-75
2024/02/12 02:34:13;;;;;;;;;;;307.80;2304.00;;;;;;5016774;28;19913;-76
2024/02/12 02:36:38;;;;;;;;;;;307.90;2304.00;;;;;;5012382;28;20027;-76
2024/02/12 02:39:04;;;;;;;;;;;308.00;2304.00;;;;;;5039853;28;19912;-76
2024/02/12 02:41:30;;;;;;;;;;;308.00;2304.00;;;;;;5022341;28;20062;-77
2024/02/12 02:43:56;;;;;;;;;;;307.90;2304.00;;;;;;5022328;28;19927;-77
2024/02/12 02:46:28;;;;;;;;;;;307.60;2304.00;;;;;;5039992;28;20369;-77
2024/02/12 02:48:55;;;;;;;;;;;307.80;2304.00;;;;;;5021816;28;19998;-79
2024/02/12 02:51:27;;;;;;;;;;;307.80;2304.00;;;;;;5040017;28;20275;-78
2024/02/12 02:53:54;;;;;;;;;;;307.90;2304.00;;;;;;5040000;28;19905;-76
2024/02/12 02:56:20;;;;;;;;;;;307.80;2304.00;;;;;;5040094;28;19909;-77
2024/02/12 02:58:47;;;;;;;;;;;307.60;2304.00;;;;;;5022276;28;19931;-77
2024/02/12 03:01:13;;;;;;;;;;;307.70;2304.00;;;;;;5039922;28;19920;-77
2024/02/12 03:03:39;;;;;;;;;;;307.80;2304.00;;;;;;5022130;28;20033;-77
2024/02/12 03:06:06;;;;;;;;;;;307.70;2304.00;;;;;;5022226;28;19967;-77
2024/02/12 03:08:34;;;;;;;;;;;307.80;2304.00;;;;;;5022057;28;19944;-78
2024/02/12 03:11:01;;;;;;;;;;;307.80;2304.00;;;;;;5021705;28;19909;-77
2024/02/12 03:13:30;;;;;;;;;;;307.80;2304.00;;;;;;5021657;28;20376;-77
2024/02/12 03:15:56;;;;;;;;;;;307.90;2304.00;;;;;;5021653;28;19963;-77
2024/02/12 03:18:22;;;;;;;;;;;307.90;2304.00;;;;;;5035991;28;19905;-77
2024/02/12 03:20:49;;;;;;;;;;;307.90;2304.00;;;;;;5018348;28;19924;-77
2024/02/12 03:23:14;;;;;;;;;;;308.00;2304.00;;;;;;5036195;28;19959;-76
2024/02/12 03:25:40;;;;;;;;;;;308.00;2304.00;;;;;;5016788;28;19905;-77
2024/02/12 03:28:06;;;;;;;;;;;308.00;2304.00;;;;;;5018761;28;19911;-77
2024/02/12 03:30:32;;;;;;;;;;;308.10;2304.00;;;;;;5018753;28;19999;-77
2024/02/12 03:33:02;;;;;;;;;;;308.10;2304.00;;;;;;5036110;28;19945;-76
2024/02/12 03:35:27;;;;;;;;;;;308.10;2304.00;;;;;;5018609;28;19978;-82
2024/02/12 03:37:53;;;;;;;;;;;308.10;2304.00;;;;;;5018503;28;20374;-77
2024/02/12 03:40:22;;;;;;;;;;;307.80;2304.00;;;;;;5018092;28;19917;-76
2024/02/12 03:42:49;;;;;;;;;;;307.70;2304.00;;;;;;5018261;28;19958;-76
2024/02/12 03:45:15;;;;;;;;;;;307.60;2304.00;;;;;;5018479;28;20359;-75
2024/02/12 03:47:43;;;;;;;;;;;307.50;2304.00;;;;;;5035345;28;19982;-77
2024/02/12 04:01:13;;;;;;;;;;;307.90;2304.00;;;;;;5035795;28;20034;-80
2024/02/12 04:03:38;;;;;;;;;;;307.90;2304.00;;;;;;5017679;28;19905;-77
2024/02/12 04:06:06;;;;;;;;;;;308.00;2304.00;;;;;;5035530;28;19905;-76
2024/02/12 04:08:32;;;;;;;;;;;308.00;2304.00;;;;;;5017797;28;19906;-76
2024/02/12 04:10:58;;;;;;;;;;;332.80;2329.60;;;;;;5011187;28;19912;-76
2024/02/12 04:13:25;;;;;;;;;;;308.10;2304.00;;;;;;5017756;28;20381;-77
2024/02/12 04:15:54;;;;;;;;;;;332.80;2329.60;;;;;;5017851;28;19905;-77
2024/02/12 04:18:20;;;;;;;;;;;332.90;2329.60;;;;;;5017148;28;19905;-78
2024/02/12 04:20:49;;;;;;;;;;;332.90;2329.60;;;;;;5034277;28;19921;-77
2024/02/12 04:23:15;;;;;;;;;;;332.90;2329.60;;;;;;5017590;28;19913;-77
2024/02/12 04:25:41;;;;;;;;;;;332.80;2329.60;;;;;;5035283;28;19905;-77
2024/02/12 04:28:09;;;;;;;;;;;308.10;2304.00;;;;;;5035228;28;19999;-81
2024/02/12 04:30:35;;;;;;;;;;;308.00;2304.00;;;;;;5017286;28;19999;-78
2024/02/12 04:33:01;;;;;;;;;;;308.00;2304.00;;;;;;5016899;28;19999;-77
2024/02/12 04:35:27;;;;;;;;;;;308.00;2304.00;;;;;;5034966;28;19967;-79
2024/02/12 04:37:54;;;;;;;;;;;308.00;2304.00;;;;;;5010945;28;20392;-81
2024/02/12 04:40:24;;;;;;;;;;;307.90;2304.00;;;;;;5017072;28;20047;-77
2024/02/12 04:42:51;;;;;;;;;;;307.90;2304.00;;;;;;5017178;28;19912;-77
2024/02/12 04:45:16;;;;;;;;;;;307.90;2304.00;;;;;;5011738;28;19911;-77
2024/02/12 04:47:42;;;;;;;;;;;307.90;2304.00;;;;;;5016880;28;19909;-77
2024/02/12 04:50:07;;;;;;;;;;;307.90;2304.00;;;;;;5034730;28;20370;-82
2024/02/12 04:52:33;;;;;;;;;;;307.90;2304.00;;;;;;5034069;28;19913;-78
2024/02/12 04:54:59;;;;;;;;;;;308.00;2304.00;;;;;;5034724;28;19970;-77
2024/02/12 04:57:24;;;;;;;;;;;308.00;2304.00;;;;;;5016955;28;20123;-76
2024/02/12 04:59:52;;;;;;;;;;;308.00;2304.00;;;;;;5016919;28;20282;-78
2024/02/12 05:02:18;;;;;;;;;;;308.00;2304.00;;;;;;5016873;28;19905;-80
2024/02/12 05:04:44;;;;;;;;;;;307.80;2304.00;;;;;;5017191;28;20262;-78
2024/02/12 05:07:10;;;;;;;;;;;307.70;2304.00;;;;;;5016817;28;20277;-77
2024/02/12 05:09:35;;;;;;;;;;;307.50;2304.00;;;;;;5029719;28;19983;-77
2024/02/12 05:12:01;;;;;;;;;;;307.30;2304.00;;;;;;5017009;28;19905;-79
2024/02/12 05:14:27;;;;;;;;;;;307.30;2304.00;;;;;;5034561;28;19905;-77
2024/02/12 05:16:59;;;;;;;;;;;307.50;2304.00;;;;;;5034373;28;20369;-77
2024/02/12 05:24:54;;;;;;;;;;;307.30;2304.00;;;;;;5034082;28;19959;-78
2024/02/12 05:27:20;;;;;;;;;;;307.20;2304.00;;;;;;5034340;28;19908;-77
2024/02/12 05:29:45;;;;;;;;;;;282.50;2278.40;;;;;;5034135;28;19958;-77
2024/02/12 05:32:11;;;;;;;;;;;282.30;2278.40;;;;;;5009823;28;19930;-77
2024/02/12 05:34:37;;;;;;;;;;;282.20;2278.40;;;;;;5033879;28;19959;-81
2024/02/12 05:37:03;;;;;;;;;;;282.20;2278.40;;;;;;5034020;28;19905;-77
2024/02/12 05:39:31;;;;;;;;;;;282.10;2278.40;;;;;;5016021;28;19963;-77
2024/02/12 05:41:57;;;;;;;;;;;281.90;2278.40;;;;;;5015564;28;19944;-80
2024/02/12 05:44:22;;;;;;;;;;;282.00;2278.40;;;;;;5033673;28;19940;-77
2024/02/12 05:46:49;;;;;;;;;;;281.90;2278.40;;;;;;5034082;28;19927;-77
2024/02/12 05:49:21;;;;;;;;;;;282.10;2278.40;;;;;;5033706;28;19909;-82
2024/02/12 05:51:46;;;;;;;;;;;282.30;2278.40;;;;;;5009269;28;19917;-76
2024/02/12 05:54:12;;;;;;;;;;;282.40;2278.40;;;;;;5021693;28;19920;-76
2024/02/12 05:56:39;;;;;;;;;;;307.20;2304.00;;;;;;5022626;28;19956;-76
2024/02/12 05:59:05;;;;;;;;;;;307.40;2304.00;;;;;;5004629;28;19909;-76
2024/02/12 06:01:31;;;;;;;;;;;307.30;2304.00;;;;;;5031345;28;20019;-76
2024/02/12 06:03:57;;;;;;;;;;;307.40;2304.00;;;;;;5007151;28;20416;-78
2024/02/12 06:06:22;;;;;;;;;;;307.50;2304.00;;;;;;4997938;28;19906;-76
2024/02/12 06:08:49;;;;;;;;;;;307.60;2304.00;;;;;;5017591;28;19913;-81
2024/02/12 06:11:15;;;;;;;;;;;307.60;2304.00;;;;;;5014154;28;20333;-76
2024/02/12 06:13:40;;;;;;;;;;;307.40;2304.00;;;;;;5023916;28;20004;-77
2024/02/12 06:16:06;;;;;;;;;;;307.30;2304.00;;;;;;5008962;28;19905;-77
2024/02/12 06:18:31;;;;;;;;;;;307.50;2304.00;;;;;;5007427;28;19917;-77
2024/02/12 06:20:57;;;;;;;;;;;307.40;2304.00;;;;;;5029941;28;20291;-79
2024/02/12 06:23:24;;;;;;;;;;;307.20;2304.00;;;;;;5007927;28;20320;-76
2024/02/12 06:25:50;;;;;;;;;;;307.40;2304.00;;;;;;5002125;28;19991;-76
2024/02/12 06:28:16;;;;;;;;;;;307.40;2304.00;;;;;;5013938;28;20028;-77
2024/02/12 06:30:41;;;;;;;;;;;307.30;2304.00;;;;;;5003144;28;19905;-76
2024/02/12 06:33:07;;;;;;;;;;;307.60;2304.00;;;;;;5002680;28;19916;-82
2024/02/12 06:35:33;;;;;;;;;;;307.70;2304.00;;;;;;4998879;28;19996;-76
2024/02/12 06:38:03;;;;;;;;;;;307.90;2304.00;;;;;;5001831;28;20370;-78
2024/02/12 06:40:29;;;;;;;;;;;308.00;2304.00;;;;;;5005139;28;20329;-79
2024/02/12 06:42:55;;;;;;;;;;;307.90;2304.00;;;;;;5006199;28;19958;-82
2024/02/12 06:45:20;;;;;;;;;;;308.00;2304.00;;;;;;5002019;28;19916;-81
2024/02/12 06:47:46;;;;;;;;;;;307.90;2304.00;;;;;;5026232;28;19964;-81
2024/02/12 06:50:15;;;;;;;;;;;308.00;2304.00;;;;;;5022188;28;19909;-89
2024/02/12 06:52:40;;;;;;;;;;;307.90;2304.00;;;;;;5007116;28;19920;-79
2024/02/12 06:55:10;;;;;;;;;;;308.10;2304.00;;;;;;5012353;28;19909;-80
2024/02/12 06:57:36;;;;;;;;;;;332.90;2329.60;;;;;;5013567;28;20377;-85
2024/02/12 07:00:03;;;;;;;;;;;333.00;2329.60;;;;;;5019022;28;20005;-80
2024/02/12 07:02:29;;;;;;;;;;;333.10;2329.60;;;;;;5025901;28;19910;-83
2024/02/12 07:04:54;;;;;;;;;;;333.20;2329.60;;;;;;5007293;28;19910;-82
2024/02/12 07:07:20;;;;;;;;;;;333.30;2329.60;;;;;;5011240;28;19935;-81
2024/02/12 07:09:45;;;;;;;;;;;333.40;2329.60;;;;;;5016636;28;20000;-80
2024/02/12 07:12:11;;;;;;;;;;;333.40;2329.60;;;;;;5008478;28;19952;-81
2024/02/12 07:14:37;;;;;;;;;;;333.40;2329.60;;;;;;5031448;28;19917;-80
2024/02/12 07:17:03;;;;;;;;;;;333.20;2329.60;;;;;;5016007;28;19928;-82
2024/02/12 07:19:31;;;;;;;;;;;333.20;2329.60;;;;;;4997946;28;19913;-81
2024/02/12 07:21:56;;;;;;;;;;;333.20;2329.60;;;;;;5026105;28;19956;-80
2024/02/12 07:24:22;;;;;;;;;;;333.30;2329.60;;;;;;5011459;28;19980;-80
2024/02/12 07:26:48;;;;;;;;;;;333.40;2329.60;;;;;;5006922;28;19906;-79
2024/02/12 07:29:13;;;;;;;;;;;333.40;2329.60;;;;;;5008433;28;19917;-79
2024/02/12 07:31:41;;;;;;;;;;;333.30;2329.60;;;;;;5006423;28;19913;-79
2024/02/12 07:34:07;;;;;;;;;;;333.30;2329.60;;;;;;5007872;28;19913;-80
2024/02/12 07:36:32;;;;;;;;;;;333.30;2329.60;;;;;;5007943;28;20351;-79
2024/02/12 07:38:58;;;;;;;;;;;333.40;2329.60;;;;;;5024660;28;19947;-79
2024/02/12 07:41:25;;;;;;;;;;;333.40;2329.60;;;;;;5009847;28;19917;-77
2024/02/12 07:43:51;;;;;;;;;;;333.50;2329.60;;;;;;5002820;28;19905;-79
2024/02/12 07:46:17;;;;;;;;;;;333.60;2329.60;;;;;;5002898;28;19951;-78
2024/02/12 07:48:43;;;;;;;;;;;333.60;2329.60;;;;;;5005718;28;19952;-79
2024/02/12 07:51:10;;;;;;;;;;;333.50;2329.60;;;;;;5001137;28;19959;-78
2024/02/12 07:53:38;;;;;;;;;;;333.60;2329.60;;;;;;5008231;28;19915;-78
2024/02/12 07:56:04;;;;;;;;;;;333.50;2329.60;;;;;;5015584;28;19912;-79
2024/02/12 07:58:30;;;;;;;;;;;333.60;2329.60;;;;;;5005445;28;20385;-76
2024/02/12 08:00:57;;;;;;;;;;;333.60;2329.60;;;;;;5020661;28;19921;-75
2024/02/12 08:03:23;;;;;;;;;;;333.50;2329.60;;;;;;5023049;28;20279;-75
2024/02/12 08:05:49;;;;;;;;;;;333.40;2329.60;;;;;;5011032;28;19909;-77
2024/02/12 08:08:15;;;;;;;;;;;333.70;2329.60;;;;;;5022115;28;19957;-76
2024/02/12 08:10:41;;;;;;;;;;;333.40;2329.60;;;;;;5023279;28;19909;-76
2024/02/12 08:13:07;;;;;;;;;;;333.40;2329.60;;;;;;5024476;28;20282;-77
2024/02/12 08:15:33;;;;;;;;;;;333.50;2329.60;;;;;;5026668;28;19909;-77
2024/02/12 08:17:58;;;;;;;;;;;333.40;2329.60;;;;;;5023906;28;19909;-77
2024/02/12 08:20:26;;;;;;;;;;;333.40;2329.60;;;;;;5005160;28;19924;-76
2024/02/12 08:22:54;;;;;;;;;;;333.40;2329.60;;;;;;5021512;28;20305;-75
2024/02/12 08:25:20;;;;;;;;;;;358.50;2329.60;;;;;;5027201;28;19995;-76
2024/02/12 08:27:45;;;;;;;;;;;333.30;2329.60;;;;;;5009030;28;19996;-76
2024/02/12 08:30:11;;;;;;;;;;;333.40;2329.60;;;;;;5025205;28;20358;-76
2024/02/12 08:32:39;;;;;;;;;;;333.40;2329.60;;;;;;5007052;28;20374;-78
2024/02/12 08:35:05;;;;;;;;;;;333.30;2329.60;;;;;;5005289;28;19956;-76
2024/02/12 08:37:31;;;;;;;;;;;333.20;2329.60;;;;;;5026410;28;19909;-78
2024/02/12 08:39:57;;;;;;;;;;;333.10;2329.60;;;;;;5004232;28;20386;-78
2024/02/12 08:42:23;;;;;;;;;;;333.10;2329.60;;;;;;5016302;28;19909;-77
2024/02/12 08:44:51;;;;;;;;;;;333.20;2329.60;;;;;;5006427;28;20343;-76
2024/02/12 08:47:17;;;;;;;;;;;333.20;2329.60;;;;;;5028428;28;20373;-78
2024/02/12 08:49:43;;;;;;;;;;;333.00;2329.60;;;;;;5005293;28;19910;-76
2024/02/12 08:52:09;;;;;;;;;;;333.00;2329.60;;;;;;5018471;28;20418;-77
2024/02/12 08:54:35;;;;;;;;;;;333.00;2329.60;;;;;;5006340;28;19948;-76
2024/02/12 08:57:05;;;;;;;;;;;332.90;2329.60;;;;;;5011735;28;20350;-76
2024/02/12 08:59:32;;;;;;;;;;;332.90;2329.60;;;;;;5003175;28;19913;-77
2024/02/12 09:01:57;;;;;;;;;;;332.80;2329.60;;;;;;5024148;28;19936;-78
2024/02/12 09:04:23;;;;;;;;;;;332.80;2329.60;;;;;;5003911;28;20367;-78
2024/02/12 09:06:49;;;;;;;;;;;332.80;2329.60;;;;;;5002685;28;20047;-80
2024/02/12 09:09:15;;;;;;;;;;;332.80;2329.60;;;;;;5005952;28;20048;-76
2024/02/12 09:11:42;;;;;;;;;;;308.10;2304.00;;;;;;5002190;28;19915;-77
2024/02/12 09:14:08;;;;;;;;;;;308.10;2304.00;;;;;;5017627;28;19916;-82
2024/02/12 09:16:34;;;;;;;;;;;332.80;2329.60;;;;;;5002783;28;19951;-82
2024/02/12 09:18:59;;;;;;;;;;;308.10;2304.00;;;;;;5019716;28;19913;-81
2024/02/12 09:21:25;;;;;;;;;;;308.10;2304.00;;;;;;5019045;28;20003;-82
2024/02/12 09:23:50;;;;;;;;;;;308.10;2304.00;;;;;;5010174;28;20329;-78
2024/02/12 09:26:17;;;;;;;;;;;308.00;2304.00;;;;;;5021704;28;19914;-79
2024/02/12 09:28:43;;;;;;;;;;;308.10;2304.00;;;;;;5026602;28;19909;-78
2024/02/12 09:31:09;;;;;;;;;;;308.10;2304.00;;;;;;5005946;28;19999;-84
2024/02/12 09:33:35;;;;;;;;;;;308.10;2304.00;;;;;;5007351;28;19909;-81
2024/02/12 09:36:01;;;;;;;;;;;308.10;2304.00;;;;;;4999779;28;19992;-78
2024/02/12 09:38:27;;;;;;;;;;;308.10;2304.00;;;;;;5020897;28;19909;-81
2024/02/12 09:40:53;;;;;;;;;;;308.10;2304.00;;;;;;5010797;28;19967;-81
2024/02/12 09:43:22;;;;;;;;;;;332.80;2329.60;;;;;;5013351;28;19909;-78
2024/02/12 09:45:49;;;;;;;;;;;308.10;2304.00;;;;;;5021667;28;20362;-81
2024/02/12 09:48:15;;;;;;;;;;;308.00;2304.00;;;;;;5009467;28;19909;-80
2024/02/12 09:50:44;;;;;;;;;;;308.10;2304.00;;;;;;5030374;28;19999;-80
2024/02/12 09:53:13;;;;;;;;;;;308.10;2304.00;;;;;;5023561;28;20389;-83
2024/02/12 09:55:39;;;;;;;;;;;308.10;2304.00;;;;;;5005368;28;19905;-80
2024/02/12 09:58:05;;;;;;;;;;;308.10;2304.00;;;;;;5007719;28;20019;-78
2024/02/12 10:00:31;;;;;;;;;;;308.10;2304.00;;;;;;5007788;28;19932;-79
2024/02/12 10:02:56;;;;;;;;;;;333.20;2329.60;;;;;;5009761;28;19959;-75
2024/02/12 10:05:25;;;;;;;;;;;308.10;2304.00;;;;;;5019991;28;20321;-77
2024/02/12 10:07:51;;;;;;;;;;;332.90;2329.60;;;;;;5022701;28;19913;-80
2024/02/12 10:10:17;;;;;;;;;;;332.90;2329.60;;;;;;5024604;23;19921;-77
2024/02/12 10:12:49;;;;;;;;;;;333.00;2329.60;;;;;;5000189;28;19917;-77
2024/02/12 10:15:16;;;;;;;;;;;333.00;2329.60;;;;;;4987748;28;19909;-76
2024/02/12 10:17:42;;;;;;;;;;;333.00;2329.60;;;;;;4981569;28;19916;-79
2024/02/12 10:20:09;;;;;;;;;;;333.00;2329.60;;;;;;4998491;28;20291;-77
2024/02/12 10:22:36;;;;;;;;;;;332.90;2329.60;;;;;;4983691;28;20355;-76
2024/02/12 10:25:02;;;;;;;;;;;333.00;2329.60;;;;;;5001214;28;19910;-75
2024/02/12 10:27:28;;;;;;;;;;;333.00;2329.60;;;;;;4988944;28;19909;-78
2024/02/12 10:29:58;;;;;;;;;;;333.10;2329.60;;;;;;4999407;28;20063;-78
2024/02/12 10:32:24;;;;;;;;;;;333.00;2329.60;;;;;;5006068;28;19913;-79
2024/02/12 10:34:52;;;;;;;;;;;333.10;2329.60;;;;;;5010342;28;20015;-78
2024/02/12 10:37:20;;;;;;;;;;;333.10;2329.60;;;;;;4993104;28;19910;-76
2024/02/12 10:39:46;;;;;;;;;;;333.10;2329.60;;;;;;5003326;28;19922;-77
2024/02/12 10:42:15;;;;;;;;;;;333.20;2329.60;;;;;;5004156;28;19917;-76
2024/02/12 10:44:40;;;;;;;;;;;333.10;2329.60;;;;;;4989566;28;19913;-78
2024/02/12 10:47:09;;;;;;;;;;;333.10;2329.60;;;;;;4994005;28;19909;-77
2024/02/12 10:49:38;;;;;;;;;;;333.00;2329.60;;;;;;4990426;28;20020;-76
2024/02/12 10:52:04;;;;;;;;;;;333.00;2329.60;;;;;;5009975;28;19909;-77
2024/02/12 10:54:30;;;;;;;;;;;333.00;2329.60;;;;;;4998013;28;19921;-75
2024/02/12 10:56:55;;;;;;;;;;;333.10;2329.60;;;;;;4999048;28;19906;-78
2024/02/12 10:59:21;;;;;;;;;;;332.90;2329.60;;;;;;5010365;28;19933;-79
2024/02/12 11:01:49;;;;;;;;;;;332.90;2329.60;;;;;;4991005;28;19909;-77
2024/02/12 11:04:17;;;;;;;;;;;333.00;2329.60;;;;;;4991666;28;20278;-79
2024/02/12 11:06:43;;;;;;;;;;;333.00;2329.60;;;;;;5005800;28;19909;-80
2024/02/12 11:09:12;;;;;;;;;;;333.10;2329.60;;;;;;4992197;28;19914;-77
2024/02/12 11:11:45;;;;;;;;;;;333.00;2329.60;;;;;;4990437;28;19917;-76
2024/02/12 11:14:13;;;;;;;;;;;333.20;2329.60;;;;;;4999271;28;19906;-76
2024/02/12 11:16:39;;;;;;;;;;;333.00;2329.60;;;;;;5005544;28;19909;-79
2024/02/12 11:19:12;;;;;;;;;;;332.90;2329.60;;;;;;5003821;28;19910;-79
2024/02/12 11:21:38;;;;;;;;;;;332.90;2329.60;;;;;;4988440;28;19946;-77
2024/02/12 11:24:07;;;;;;;;;;;332.90;2329.60;;;;;;4989824;28;20033;-77
2024/02/12 11:26:40;;;;;;;;;;;332.90;2329.60;;;;;;5004828;28;19913;-76
2024/02/12 11:29:06;;;;;;;;;;;332.80;2329.60;;;;;;4997702;28;19910;-76
2024/02/12 11:31:37;;;;;;;;;;;308.10;2304.00;;;;;;5003354;28;19925;-75
2024/02/12 11:34:30;;;;;;;;;;;308.10;2304.00;;;;;;5008139;28;19919;-76
2024/02/12 11:36:57;;;;;;;;;;;308.00;2304.00;;;;;;5008811;28;19909;-78
2024/02/12 11:39:22;;;;;;;;;;;308.00;2304.00;;;;;;5002219;28;19913;-75
2024/02/12 11:41:48;;;;;;;;;;;307.90;2304.00;;;;;;5004941;28;19913;-75
2024/02/12 11:44:14;;;;;;;;;;;307.90;2304.00;;;;;;5005354;28;20367;-75
2024/02/12 11:46:40;;;;;;;;;;;307.80;2304.00;;;;;;5007649;28;19964;-74
2024/02/12 11:49:07;;;;;;;;;;;307.80;2304.00;;;;;;5004249;28;20382;-78
2024/02/12 11:51:36;;;;;;;;;;;307.80;2304.00;;;;;;4997290;28;19910;-75
2024/02/12 11:54:02;;;;;;;;;;;307.80;2304.00;;;;;;5005462;28;19910;-75
2024/02/12 11:56:28;;;;;;;;;;;307.80;2304.00;;;;;;5005578;28;19988;-74
2024/02/12 11:58:54;;;;;;;;;;;307.90;2304.00;;;;;;4989513;28;19910;-77
2024/02/12 12:01:24;;;;;;;;;;;307.90;2304.00;;;;;;5007386;28;19917;-75
2024/02/12 12:03:49;;;;;;;;;;;308.00;2304.00;;;;;;5001497;28;19961;-75
2024/02/12 12:06:16;;;;;;;;;;;307.90;2304.00;;;;;;4996759;28;19914;-78
2024/02/12 12:08:41;;;;;;;;;;;307.90;2304.00;;;;;;4985051;28;19906;-76
2024/02/12 12:11:07;;;;;;;;;;;307.90;2304.00;;;;;;4987308;28;19917;-81
2024/02/12 12:13:33;;;;;;;;;;;307.90;2304.00;;;;;;5000157;28;20417;-77
2024/02/12 12:15:59;;;;;;;;;;;307.90;2304.00;;;;;;5001008;28;19910;-76
2024/02/12 12:18:24;;;;;;;;;;;307.80;2304.00;;;;;;4995102;28;20386;-79
2024/02/12 12:20:56;;;;;;;;;;;307.80;2304.00;;;;;;4989125;28;19913;-77
2024/02/12 12:23:22;;;;;;;;;;;307.80;2304.00;;;;;;5009908;28;20260;-77
2024/02/12 12:25:50;;;;;;;;;;;307.70;2304.00;;;;;;4989870;28;19916;-78
2024/02/12 12:28:15;;;;;;;;;;;307.80;2304.00;;;;;;4995204;28;19905;-77
2024/02/12 12:30:41;;;;;;;;;;;307.70;2304.00;;;;;;5004253;28;20302;-76
2024/02/12 12:33:07;;;;;;;;;;;307.80;2304.00;;;;;;4987682;28;19944;-76
2024/02/12 12:35:34;;;;;;;;;;;307.80;2304.00;;;;;;4999677;28;19910;-76
2024/02/12 12:38:08;;;;;;;;;;;307.80;2304.00;;;;;;5004998;28;19917;-75
2024/02/12 12:40:34;;;;;;;;;;;307.80;2304.00;;;;;;4984737;28;19932;-77
2024/02/12 12:43:01;;;;;;;;;;;307.80;2304.00;;;;;;5008942;28;20031;-77
2024/02/12 12:45:27;;;;;;;;;;;307.80;2304.00;;;;;;4990717;28;19909;-76
2024/02/12 12:47:52;;;;;;;;;;;307.90;2304.00;;;;;;5001027;28;19916;-79
2024/02/12 12:50:18;;;;;;;;;;;308.10;2304.00;;;;;;4996976;28;19905;-78
2024/02/12 12:52:43;;;;;;;;;;;308.00;2304.00;;;;;;5001145;28;20283;-75
2024/02/12 12:55:13;;;;;;;;;;;308.10;2304.00;;;;;;4997885;28;19910;-77
2024/02/12 12:57:39;;;;;;;;;;;308.00;2304.00;;;;;;4989018;28;19906;-76
2024/02/12 13:00:06;;;;;;;;;;;308.00;2304.00;;;;;;4987915;28;19917;-78
2024/02/12 13:02:32;;;;;;;;;;;308.10;2304.00;;;;;;4994440;28;19909;-76
2024/02/12 13:04:58;;;;;;;;;;;333.00;2329.60;;;;;;4987587;28;19956;-78
2024/02/12 13:07:24;;;;;;;;;;;308.10;2304.00;;;;;;5001667;28;19913;-76
2024/02/12 13:09:53;;;;;;;;;;;308.10;2304.00;;;;;;4989204;28;19929;-76
2024/02/12 13:12:18;;;;;;;;;;;308.10;2304.00;;;;;;4995905;28;19913;-76
2024/02/12 13:14:45;;;;;;;;;;;308.10;2304.00;;;;;;5007035;28;20394;-76
2024/02/12 13:17:11;;;;;;;;;;;308.10;2304.00;;;;;;4985762;28;19913;-77
2024/02/12 13:19:36;;;;;;;;;;;308.10;2304.00;;;;;;4988855;28;20596;-76
2024/02/12 13:22:02;;;;;;;;;;;308.10;2304.00;;;;;;5002075;28;19964;-74
2024/02/12 13:24:28;;;;;;;;;;;308.10;2304.00;;;;;;5006233;28;20009;-74
2024/02/12 13:26:53;;;;;;;;;;;308.10;2304.00;;;;;;4985092;28;19910;-75
2024/02/12 13:29:20;;;;;;;;;;;308.10;2304.00;;;;;;5004533;28;19913;-74
2024/02/12 13:31:46;;;;;;;;;;;308.10;2304.00;;;;;;4999277;28;19955;-75
2024/02/12 13:34:12;;;;;;;;;;;308.00;2304.00;;;;;;5003900;28;19924;-74
2024/02/12 13:36:39;;;;;;;;;;;307.90;2304.00;;;;;;4997772;28;19917;-75
2024/02/12 13:39:05;;;;;;;;;;;307.90;2304.00;;;;;;4994600;28;19913;-75
2024/02/12 13:41:35;;;;;;;;;;;308.00;2304.00;;;;;;4989967;28;19918;-76
2024/02/12 13:44:03;;;;;;;;;;;308.00;2304.00;;;;;;5004026;28;19906;-75
2024/02/12 13:46:28;;;;;;;;;;;308.10;2304.00;;;;;;4986841;28;20326;-76
2024/02/12 13:48:54;;;;;;;;;;;308.10;2304.00;;;;;;4998399;28;19960;-76
2024/02/12 13:51:20;;;;;;;;;;;308.10;2304.00;;;;;;5001564;28;19937;-76
2024/02/12 13:53:45;;;;;;;;;;;308.00;2304.00;;;;;;4998027;28;19906;-75
2024/02/12 13:56:11;;;;;;;;;;;308.10;2304.00;;;;;;5003296;28;20398;-75